RBA4201 WBSB-OEMA
Flight info
| Callsign | RBA4201 |
|---|---|
| Flight time | N/A |
| Altitude | 34000 |
| Route | DOGOG M768 AKMON/K0945F340 M768 TSH R468 SAPEN/N0510F340 R468 ELMOP/N0502F260 R468 TIA/N0486F240 R468 BOKAK/N0504F360 R468 UGIPA M633 TANEK L301 BUSBO/N0496F380 L301 RAGMA N571 MENSA/N0504F340 N571 TUDIS/N0494F380 N571 ALPOB L768 MEDMA/N0487F400 L768 ULADA Q143 MEDGO N697 BPN G674 EMURI |
| Aircraft | B789/H-SDE1E2E3FGHIJ2J3J4J5M1RWXY/LB1D1 |
Departure
| Time | N/A |
|---|---|
| Airport | Brunei International Airport (WBSB) |
Arrival
| Time | 2026-04-24 22:25 |
|---|---|
| Airport | Prince Mohammad Bin Abdulaziz Airport (OEMA) |
| Time | Latitude | Longitude | Altitude | Speed | Heading |
|---|---|---|---|---|---|
| 2026-04-24 19:43 | 24.49349 | 57.79899 | 37862 ft | 467 kts | 295° |
| 2026-04-24 19:43 | 24.51884 | 57.73347 | 37857 ft | 467 kts | 293° |
| 2026-04-24 19:44 | 24.54404 | 57.66776 | 37861 ft | 466 kts | 292° |
| 2026-04-24 19:44 | 24.56885 | 57.60201 | 37860 ft | 465 kts | 292° |
| 2026-04-24 19:45 | 24.59365 | 57.53673 | 37862 ft | 465 kts | 292° |
| 2026-04-24 19:45 | 24.61844 | 57.47109 | 37865 ft | 465 kts | 292° |
| 2026-04-24 19:46 | 24.64324 | 57.40546 | 37867 ft | 464 kts | 292° |
| 2026-04-24 19:46 | 24.66797 | 57.33984 | 37873 ft | 464 kts | 292° |
| 2026-04-24 19:47 | 24.69265 | 57.27429 | 37870 ft | 463 kts | 292° |
| 2026-04-24 19:47 | 24.71727 | 57.20881 | 37871 ft | 463 kts | 292° |
| 2026-04-24 19:48 | 24.74167 | 57.14379 | 37872 ft | 462 kts | 292° |
| 2026-04-24 19:48 | 24.77840 | 57.04572 | 37874 ft | 461 kts | 292° |
| 2026-04-24 19:49 | 24.82716 | 56.91519 | 37872 ft | 461 kts | 292° |
| 2026-04-24 19:50 | 24.87579 | 56.78461 | 37875 ft | 461 kts | 292° |
| 2026-04-24 19:51 | 24.91220 | 56.68655 | 37873 ft | 460 kts | 292° |
| 2026-04-24 19:52 | 24.94831 | 56.58910 | 37888 ft | 460 kts | 291° |
| 2026-04-24 19:52 | 24.97107 | 56.52323 | 37901 ft | 460 kts | 288° |
| 2026-04-24 19:53 | 24.99146 | 56.45634 | 37898 ft | 460 kts | 288° |
| 2026-04-24 19:54 | 25.02192 | 56.35575 | 37909 ft | 461 kts | 288° |
| 2026-04-24 19:54 | 25.04224 | 56.28872 | 37908 ft | 461 kts | 288° |
| 2026-04-24 19:55 | 25.05900 | 56.23303 | 37893 ft | 460 kts | 288° |
| 2026-04-24 19:55 | 25.08259 | 56.15461 | 37900 ft | 460 kts | 288° |
| 2026-04-24 19:56 | 25.10039 | 56.08695 | 37916 ft | 459 kts | 279° |
| 2026-04-24 19:56 | 25.10917 | 56.01718 | 37908 ft | 459 kts | 278° |
| 2026-04-24 19:57 | 25.11771 | 55.94777 | 37916 ft | 459 kts | 278° |
| 2026-04-24 19:57 | 25.12627 | 55.87788 | 37915 ft | 459 kts | 278° |
| 2026-04-24 19:58 | 25.13238 | 55.82786 | 38311 ft | 449 kts | 278° |
| 2026-04-24 19:58 | 25.13372 | 55.81687 | 38559 ft | 446 kts | 278° |
| 2026-04-24 19:58 | 25.13589 | 55.79901 | 38795 ft | 444 kts | 278° |
| 2026-04-24 19:59 | 25.14025 | 55.76532 | 39034 ft | 442 kts | 282° |
| 2026-04-24 19:59 | 25.14716 | 55.73226 | 39183 ft | 443 kts | 283° |
| 2026-04-24 19:59 | 25.15390 | 55.69920 | 39391 ft | 442 kts | 282° |
| 2026-04-24 19:59 | 25.16041 | 55.66603 | 39590 ft | 442 kts | 281° |
| 2026-04-24 20:00 | 25.16566 | 55.63261 | 39776 ft | 441 kts | 279° |
| 2026-04-24 20:00 | 25.17028 | 55.59954 | 39976 ft | 441 kts | 279° |
| 2026-04-24 20:00 | 25.17540 | 55.56625 | 40172 ft | 441 kts | 280° |
| 2026-04-24 20:00 | 25.18092 | 55.53289 | 40373 ft | 440 kts | 280° |
| 2026-04-24 20:01 | 25.18622 | 55.49958 | 40580 ft | 440 kts | 279° |
| 2026-04-24 20:01 | 25.19128 | 55.46629 | 40772 ft | 439 kts | 279° |
| 2026-04-24 20:01 | 25.19639 | 55.43304 | 40961 ft | 439 kts | 279° |
| 2026-04-24 20:01 | 25.20162 | 55.39981 | 41155 ft | 439 kts | 279° |
| 2026-04-24 20:02 | 25.20507 | 55.37783 | 41277 ft | 439 kts | 279° |
| 2026-04-24 20:02 | 25.21195 | 55.33336 | 41517 ft | 438 kts | 279° |
| 2026-04-24 20:02 | 25.21706 | 55.30020 | 41710 ft | 438 kts | 279° |
| 2026-04-24 20:02 | 25.22214 | 55.26741 | 41871 ft | 438 kts | 279° |
| 2026-04-24 20:03 | 25.22728 | 55.23422 | 41877 ft | 440 kts | 279° |
| 2026-04-24 20:03 | 25.23758 | 55.16732 | 41877 ft | 444 kts | 279° |
| 2026-04-24 20:04 | 25.24795 | 55.09978 | 41889 ft | 448 kts | 279° |
| 2026-04-24 20:04 | 25.25838 | 55.03167 | 41888 ft | 449 kts | 279° |
| 2026-04-24 20:05 | 25.26869 | 54.96414 | 41884 ft | 447 kts | 279° |
| 2026-04-24 20:05 | 25.27904 | 54.89609 | 41889 ft | 446 kts | 279° |
| 2026-04-24 20:06 | 25.28928 | 54.82855 | 41885 ft | 446 kts | 279° |
| 2026-04-24 20:06 | 25.29950 | 54.76091 | 41886 ft | 447 kts | 279° |
| 2026-04-24 20:07 | 25.30801 | 54.70449 | 41890 ft | 448 kts | 279° |
| 2026-04-24 20:07 | 25.31993 | 54.62513 | 41889 ft | 447 kts | 279° |
| 2026-04-24 20:08 | 25.33002 | 54.55774 | 41891 ft | 447 kts | 279° |
| 2026-04-24 20:08 | 25.34543 | 54.49131 | 41887 ft | 447 kts | 285° |
| 2026-04-24 20:09 | 25.36320 | 54.42535 | 41893 ft | 448 kts | 285° |
| 2026-04-24 20:09 | 25.38104 | 54.35933 | 41891 ft | 448 kts | 285° |
| 2026-04-24 20:10 | 25.39878 | 54.29337 | 41892 ft | 448 kts | 285° |
| 2026-04-24 20:10 | 25.41538 | 54.22723 | 41885 ft | 447 kts | 284° |
| 2026-04-24 20:11 | 25.43208 | 54.16105 | 41885 ft | 446 kts | 284° |
| 2026-04-24 20:11 | 25.44565 | 54.10589 | 41890 ft | 446 kts | 284° |
| 2026-04-24 20:12 | 25.46175 | 54.03960 | 41893 ft | 446 kts | 283° |
| 2026-04-24 20:12 | 25.47765 | 53.97321 | 41894 ft | 445 kts | 284° |
| 2026-04-24 20:13 | 25.49361 | 53.90700 | 41892 ft | 445 kts | 284° |
| 2026-04-24 20:13 | 25.50944 | 53.84083 | 41894 ft | 445 kts | 284° |
| 2026-04-24 20:14 | 25.52529 | 53.77462 | 41893 ft | 444 kts | 284° |
| 2026-04-24 20:14 | 25.54112 | 53.70837 | 41893 ft | 444 kts | 284° |
| 2026-04-24 20:15 | 25.55685 | 53.64273 | 41892 ft | 444 kts | 283° |
| 2026-04-24 20:15 | 25.57264 | 53.57652 | 41898 ft | 444 kts | 283° |
| 2026-04-24 20:16 | 25.58840 | 53.51037 | 41900 ft | 444 kts | 283° |
| 2026-04-24 20:16 | 25.60410 | 53.44429 | 41896 ft | 444 kts | 283° |
| 2026-04-24 20:17 | 25.61978 | 53.37812 | 41899 ft | 443 kts | 283° |
| 2026-04-24 20:17 | 25.64320 | 53.27879 | 41900 ft | 444 kts | 283° |
| 2026-04-24 20:18 | 25.65879 | 53.21258 | 41898 ft | 444 kts | 283° |
| 2026-04-24 20:18 | 25.67424 | 53.14675 | 41899 ft | 444 kts | 283° |
| 2026-04-24 20:19 | 25.68973 | 53.08062 | 41898 ft | 443 kts | 283° |
| 2026-04-24 20:19 | 25.70671 | 53.01492 | 41918 ft | 444 kts | 290° |
| 2026-04-24 20:20 | 25.73442 | 52.95325 | 41904 ft | 447 kts | 295° |
| 2026-04-24 20:20 | 25.76320 | 52.89222 | 41902 ft | 447 kts | 295° |
| 2026-04-24 20:21 | 25.79193 | 52.83144 | 41893 ft | 447 kts | 295° |
| 2026-04-24 20:21 | 25.82075 | 52.77026 | 41902 ft | 447 kts | 295° |
| 2026-04-24 20:22 | 25.84955 | 52.70910 | 41906 ft | 448 kts | 295° |
| 2026-04-24 20:22 | 25.87840 | 52.64772 | 41907 ft | 448 kts | 294° |
| 2026-04-24 20:23 | 25.90671 | 52.58606 | 41917 ft | 447 kts | 293° |
| 2026-04-24 20:23 | 25.93430 | 52.52391 | 41910 ft | 448 kts | 293° |
| 2026-04-24 20:24 | 25.96171 | 52.46166 | 41913 ft | 449 kts | 293° |
| 2026-04-24 20:24 | 25.98897 | 52.39975 | 41911 ft | 449 kts | 293° |
| 2026-04-24 20:25 | 26.01678 | 52.33754 | 41913 ft | 449 kts | 294° |
| 2026-04-24 20:25 | 26.04456 | 52.27533 | 41918 ft | 449 kts | 293° |
| 2026-04-24 20:26 | 26.07230 | 52.21304 | 41921 ft | 449 kts | 293° |
| 2026-04-24 20:26 | 26.10001 | 52.15079 | 41924 ft | 449 kts | 293° |
| 2026-04-24 20:27 | 26.12767 | 52.08851 | 41924 ft | 449 kts | 293° |
| 2026-04-24 20:27 | 26.15527 | 52.02635 | 41923 ft | 448 kts | 293° |
| 2026-04-24 20:28 | 26.18296 | 51.96410 | 41925 ft | 448 kts | 294° |
| 2026-04-24 20:28 | 26.21104 | 51.90205 | 41926 ft | 449 kts | 292° |
| 2026-04-24 20:29 | 26.23823 | 51.83943 | 41929 ft | 448 kts | 293° |
| 2026-04-24 20:29 | 26.26593 | 51.77715 | 41932 ft | 449 kts | 293° |
| 2026-04-24 20:30 | 26.29360 | 51.71524 | 41929 ft | 449 kts | 293° |
| 2026-04-24 20:30 | 26.32131 | 51.65292 | 41925 ft | 448 kts | 293° |
| 2026-04-24 20:31 | 26.34909 | 51.59067 | 41921 ft | 448 kts | 293° |
| 2026-04-24 20:31 | 26.37663 | 51.52835 | 41930 ft | 447 kts | 289° |
| 2026-04-24 20:32 | 26.39792 | 51.46345 | 41929 ft | 446 kts | 287° |
| 2026-04-24 20:32 | 26.41884 | 51.39814 | 41928 ft | 446 kts | 287° |
| 2026-04-24 20:33 | 26.43965 | 51.33288 | 41934 ft | 447 kts | 287° |
| 2026-04-24 20:33 | 26.46057 | 51.26756 | 41933 ft | 447 kts | 287° |
| 2026-04-24 20:34 | 26.48129 | 51.20253 | 41932 ft | 447 kts | 287° |
| 2026-04-24 20:34 | 26.50211 | 51.13721 | 41935 ft | 447 kts | 287° |
| 2026-04-24 20:35 | 26.52293 | 51.07170 | 41934 ft | 447 kts | 287° |
| 2026-04-24 20:35 | 26.54373 | 51.00619 | 41933 ft | 447 kts | 287° |
| 2026-04-24 20:36 | 26.56446 | 50.94074 | 41935 ft | 446 kts | 287° |
| 2026-04-24 20:36 | 26.58494 | 50.87557 | 41936 ft | 446 kts | 286° |
| 2026-04-24 20:37 | 26.60522 | 50.80975 | 41935 ft | 445 kts | 286° |
| 2026-04-24 20:37 | 26.62534 | 50.74500 | 41933 ft | 443 kts | 286° |
| 2026-04-24 20:38 | 26.64542 | 50.67991 | 41938 ft | 443 kts | 286° |
| 2026-04-24 20:38 | 26.66473 | 50.61442 | 41941 ft | 443 kts | 285° |
| 2026-04-24 20:39 | 26.68410 | 50.54914 | 41940 ft | 442 kts | 285° |
| 2026-04-24 20:39 | 26.70338 | 50.48383 | 41941 ft | 441 kts | 283° |
| 2026-04-24 20:40 | 26.72031 | 50.41792 | 41936 ft | 440 kts | 283° |
| 2026-04-24 20:40 | 26.73732 | 50.35212 | 41943 ft | 439 kts | 283° |
| 2026-04-24 20:41 | 26.75346 | 50.28634 | 41952 ft | 436 kts | 278° |
| 2026-04-24 20:41 | 26.75801 | 50.21925 | 41935 ft | 436 kts | 270° |
| 2026-04-24 20:42 | 26.75878 | 50.15145 | 41939 ft | 436 kts | 270° |
| 2026-04-24 20:42 | 26.75938 | 50.08374 | 41946 ft | 435 kts | 270° |
| 2026-04-24 20:43 | 26.76002 | 50.01594 | 41939 ft | 434 kts | 270° |
| 2026-04-24 20:43 | 26.76059 | 49.94847 | 41934 ft | 433 kts | 270° |
| 2026-04-24 20:44 | 26.76113 | 49.88113 | 41931 ft | 432 kts | 270° |
| 2026-04-24 20:44 | 26.76162 | 49.81397 | 41933 ft | 431 kts | 270° |
| 2026-04-24 20:45 | 26.76209 | 49.74688 | 41928 ft | 430 kts | 270° |
| 2026-04-24 20:45 | 26.76252 | 49.68032 | 41930 ft | 430 kts | 270° |
| 2026-04-24 20:46 | 26.76293 | 49.61330 | 41937 ft | 431 kts | 269° |
| 2026-04-24 20:46 | 26.76331 | 49.54631 | 41943 ft | 430 kts | 270° |
| 2026-04-24 20:47 | 26.76370 | 49.47950 | 41944 ft | 428 kts | 269° |
| 2026-04-24 20:47 | 26.76403 | 49.41275 | 41948 ft | 429 kts | 269° |
| 2026-04-24 20:48 | 26.76434 | 49.34598 | 41951 ft | 428 kts | 269° |
| 2026-04-24 20:48 | 26.76459 | 49.27976 | 41954 ft | 428 kts | 269° |
| 2026-04-24 20:49 | 26.76483 | 49.21273 | 41952 ft | 428 kts | 269° |
| 2026-04-24 20:49 | 26.76502 | 49.14668 | 41956 ft | 426 kts | 269° |
| 2026-04-24 20:50 | 26.76519 | 49.08038 | 41954 ft | 426 kts | 269° |
| 2026-04-24 20:50 | 26.76533 | 49.01411 | 41954 ft | 426 kts | 269° |
| 2026-04-24 20:51 | 26.76544 | 48.94789 | 41961 ft | 425 kts | 269° |
| 2026-04-24 20:51 | 26.76551 | 48.88165 | 41964 ft | 425 kts | 269° |
| 2026-04-24 20:52 | 26.76555 | 48.81554 | 41967 ft | 425 kts | 269° |
| 2026-04-24 20:52 | 26.76557 | 48.74950 | 41971 ft | 424 kts | 269° |
| 2026-04-24 20:53 | 26.76505 | 48.68392 | 41977 ft | 423 kts | 268° |
| 2026-04-24 20:53 | 26.76335 | 48.61791 | 41976 ft | 424 kts | 268° |
| 2026-04-24 20:54 | 26.76162 | 48.55193 | 41983 ft | 424 kts | 268° |
| 2026-04-24 20:54 | 26.75985 | 48.48601 | 41992 ft | 424 kts | 268° |
| 2026-04-24 20:55 | 26.75806 | 48.42001 | 41986 ft | 424 kts | 268° |
| 2026-04-24 20:55 | 26.75623 | 48.35410 | 41994 ft | 424 kts | 268° |
| 2026-04-24 20:56 | 26.75471 | 48.29933 | 41997 ft | 423 kts | 268° |
| 2026-04-24 20:56 | 26.75287 | 48.23354 | 42001 ft | 422 kts | 268° |
| 2026-04-24 20:57 | 26.75068 | 48.15712 | 42005 ft | 423 kts | 268° |
| 2026-04-24 20:57 | 26.74909 | 48.10203 | 42003 ft | 423 kts | 268° |
| 2026-04-24 20:58 | 26.74716 | 48.03657 | 42008 ft | 422 kts | 268° |
| 2026-04-24 20:58 | 26.74520 | 47.97092 | 42013 ft | 422 kts | 267° |
| 2026-04-24 20:59 | 26.74320 | 47.90521 | 42013 ft | 422 kts | 267° |
| 2026-04-24 20:59 | 26.74481 | 47.83945 | 42012 ft | 423 kts | 271° |
| 2026-04-24 21:00 | 26.74798 | 47.77380 | 42015 ft | 422 kts | 271° |
| 2026-04-24 21:00 | 26.75134 | 47.70824 | 42017 ft | 422 kts | 271° |
| 2026-04-24 21:01 | 26.75455 | 47.64307 | 42021 ft | 422 kts | 271° |
| 2026-04-24 21:01 | 26.75779 | 47.57746 | 42017 ft | 421 kts | 271° |
| 2026-04-24 21:02 | 26.76099 | 47.51193 | 42024 ft | 421 kts | 271° |
| 2026-04-24 21:02 | 26.76416 | 47.44633 | 42027 ft | 422 kts | 271° |
| 2026-04-24 21:03 | 26.76742 | 47.38124 | 42027 ft | 421 kts | 274° |
| 2026-04-24 21:03 | 26.77684 | 47.31627 | 42030 ft | 423 kts | 277° |
| 2026-04-24 21:04 | 26.78683 | 47.25126 | 42034 ft | 424 kts | 277° |
| 2026-04-24 21:04 | 26.79687 | 47.18622 | 42039 ft | 424 kts | 276° |
| 2026-04-24 21:05 | 26.80684 | 47.12108 | 42036 ft | 424 kts | 276° |
| 2026-04-24 21:05 | 26.81680 | 47.05603 | 42040 ft | 423 kts | 276° |
| 2026-04-24 21:06 | 26.82671 | 46.99094 | 42043 ft | 424 kts | 276° |
| 2026-04-24 21:06 | 26.83656 | 46.92612 | 42046 ft | 425 kts | 276° |
| 2026-04-24 21:07 | 26.84645 | 46.86083 | 42044 ft | 424 kts | 276° |
| 2026-04-24 21:07 | 26.85629 | 46.79561 | 42045 ft | 424 kts | 276° |
| 2026-04-24 21:08 | 26.86605 | 46.73073 | 42045 ft | 424 kts | 276° |
| 2026-04-24 21:08 | 26.87581 | 46.66568 | 42050 ft | 423 kts | 276° |
| 2026-04-24 21:09 | 26.88555 | 46.60048 | 42049 ft | 425 kts | 276° |
| 2026-04-24 21:09 | 26.89525 | 46.53546 | 42048 ft | 425 kts | 276° |
| 2026-04-24 21:10 | 26.90497 | 46.47002 | 42046 ft | 426 kts | 276° |
| 2026-04-24 21:10 | 26.91467 | 46.40448 | 42043 ft | 426 kts | 275° |
| 2026-04-24 21:11 | 26.92440 | 46.33882 | 42043 ft | 427 kts | 275° |
| 2026-04-24 21:11 | 26.93413 | 46.27315 | 42040 ft | 427 kts | 275° |
| 2026-04-24 21:12 | 26.94381 | 46.20746 | 42031 ft | 428 kts | 275° |
| 2026-04-24 21:12 | 26.95350 | 46.14158 | 42026 ft | 428 kts | 275° |
| 2026-04-24 21:13 | 26.96313 | 46.07582 | 42026 ft | 428 kts | 275° |
| 2026-04-24 21:13 | 26.97275 | 46.00997 | 42021 ft | 428 kts | 275° |
| 2026-04-24 21:14 | 26.98233 | 45.94409 | 42016 ft | 428 kts | 275° |
| 2026-04-24 21:14 | 26.99183 | 45.87863 | 42007 ft | 428 kts | 275° |
| 2026-04-24 21:15 | 27.00136 | 45.81267 | 42006 ft | 429 kts | 275° |
| 2026-04-24 21:15 | 27.01088 | 45.74661 | 42002 ft | 429 kts | 275° |
| 2026-04-24 21:16 | 27.02038 | 45.68045 | 42001 ft | 430 kts | 275° |
| 2026-04-24 21:16 | 27.02986 | 45.61417 | 42002 ft | 430 kts | 275° |
| 2026-04-24 21:17 | 27.03929 | 45.54800 | 42012 ft | 430 kts | 275° |
| 2026-04-24 21:17 | 27.04498 | 45.48139 | 42017 ft | 426 kts | 264° |
| 2026-04-24 21:18 | 27.03626 | 45.41619 | 42025 ft | 422 kts | 252° |
| 2026-04-24 21:18 | 27.01397 | 45.35588 | 42017 ft | 422 kts | 244° |
| 2026-04-24 21:19 | 26.98785 | 45.29689 | 42019 ft | 422 kts | 244° |
| 2026-04-24 21:19 | 26.96148 | 45.23803 | 42015 ft | 422 kts | 244° |
| 2026-04-24 21:20 | 26.92207 | 45.14985 | 42021 ft | 421 kts | 244° |
| 2026-04-24 21:21 | 26.89579 | 45.09125 | 42020 ft | 420 kts | 244° |
| 2026-04-24 21:21 | 26.86962 | 45.03290 | 42021 ft | 418 kts | 244° |
| 2026-04-24 21:22 | 26.84348 | 44.97475 | 42018 ft | 417 kts | 244° |
| 2026-04-24 21:22 | 26.81733 | 44.91661 | 42013 ft | 418 kts | 244° |
| 2026-04-24 21:23 | 26.79118 | 44.85859 | 42016 ft | 417 kts | 244° |
| 2026-04-24 21:23 | 26.76523 | 44.80106 | 42016 ft | 416 kts | 244° |
| 2026-04-24 21:24 | 26.73907 | 44.74325 | 42014 ft | 416 kts | 244° |
| 2026-04-24 21:24 | 26.71289 | 44.68546 | 42011 ft | 416 kts | 244° |
| 2026-04-24 21:25 | 26.68670 | 44.62772 | 42010 ft | 416 kts | 244° |
| 2026-04-24 21:25 | 26.66048 | 44.57000 | 42008 ft | 417 kts | 244° |
| 2026-04-24 21:26 | 26.63414 | 44.51207 | 42009 ft | 417 kts | 244° |
| 2026-04-24 21:26 | 26.60776 | 44.45415 | 42012 ft | 417 kts | 244° |
| 2026-04-24 21:27 | 26.58159 | 44.39675 | 42009 ft | 418 kts | 244° |
| 2026-04-24 21:27 | 26.55517 | 44.33887 | 42011 ft | 418 kts | 244° |
| 2026-04-24 21:28 | 26.52874 | 44.28104 | 42006 ft | 417 kts | 244° |
| 2026-04-24 21:28 | 26.50237 | 44.22342 | 42003 ft | 416 kts | 244° |
| 2026-04-24 21:29 | 26.47598 | 44.16584 | 42010 ft | 417 kts | 244° |
| 2026-04-24 21:29 | 26.44957 | 44.10827 | 42011 ft | 416 kts | 244° |
| 2026-04-24 21:30 | 26.42318 | 44.05084 | 42011 ft | 416 kts | 244° |
| 2026-04-24 21:30 | 26.39678 | 43.99346 | 42015 ft | 415 kts | 244° |
| 2026-04-24 21:31 | 26.37055 | 43.93654 | 42015 ft | 415 kts | 244° |
| 2026-04-24 21:31 | 26.34411 | 43.87920 | 42015 ft | 415 kts | 244° |
| 2026-04-24 21:32 | 26.31761 | 43.82185 | 42015 ft | 416 kts | 244° |
| 2026-04-24 21:32 | 26.29181 | 43.76429 | 42027 ft | 414 kts | 247° |
| 2026-04-24 21:33 | 26.26783 | 43.70577 | 42028 ft | 415 kts | 246° |
| 2026-04-24 21:33 | 26.24381 | 43.64728 | 42028 ft | 415 kts | 246° |
| 2026-04-24 21:34 | 26.21980 | 43.58882 | 42024 ft | 415 kts | 246° |
| 2026-04-24 21:34 | 26.19574 | 43.53041 | 42024 ft | 414 kts | 246° |
| 2026-04-24 21:35 | 26.17169 | 43.47202 | 42025 ft | 415 kts | 246° |
| 2026-04-24 21:35 | 26.14759 | 43.41364 | 42012 ft | 414 kts | 246° |
| 2026-04-24 21:36 | 26.12351 | 43.35539 | 42016 ft | 415 kts | 247° |
| 2026-04-24 21:36 | 26.09937 | 43.29704 | 42016 ft | 415 kts | 247° |
| 2026-04-24 21:37 | 26.07524 | 43.23882 | 42013 ft | 414 kts | 247° |
| 2026-04-24 21:37 | 26.05112 | 43.18072 | 42013 ft | 414 kts | 247° |
| 2026-04-24 21:38 | 26.02706 | 43.12282 | 42014 ft | 415 kts | 247° |
| 2026-04-24 21:38 | 26.00278 | 43.06448 | 42014 ft | 415 kts | 247° |
| 2026-04-24 21:39 | 25.97852 | 43.00628 | 42012 ft | 415 kts | 247° |
| 2026-04-24 21:39 | 25.95425 | 42.94814 | 42007 ft | 415 kts | 247° |
| 2026-04-24 21:40 | 25.92990 | 42.88989 | 42006 ft | 416 kts | 247° |
| 2026-04-24 21:40 | 25.90551 | 42.83159 | 42005 ft | 416 kts | 247° |
| 2026-04-24 21:41 | 25.88108 | 42.77333 | 42004 ft | 415 kts | 247° |
| 2026-04-24 21:41 | 25.85688 | 42.71565 | 42001 ft | 415 kts | 247° |
| 2026-04-24 21:42 | 25.83248 | 42.65760 | 41996 ft | 414 kts | 247° |
| 2026-04-24 21:42 | 25.81219 | 42.60938 | 41994 ft | 414 kts | 247° |
| 2026-04-24 21:43 | 25.78782 | 42.55152 | 41992 ft | 414 kts | 247° |
| 2026-04-24 21:43 | 25.76341 | 42.49368 | 41994 ft | 413 kts | 247° |
| 2026-04-24 21:44 | 25.73907 | 42.43604 | 41992 ft | 413 kts | 247° |
| 2026-04-24 21:44 | 25.71469 | 42.37842 | 41991 ft | 413 kts | 247° |
| 2026-04-24 21:45 | 25.69027 | 42.32077 | 41994 ft | 412 kts | 247° |
| 2026-04-24 21:45 | 25.66605 | 42.26365 | 41992 ft | 411 kts | 247° |
| 2026-04-24 21:46 | 25.64165 | 42.20622 | 41990 ft | 411 kts | 247° |
| 2026-04-24 21:46 | 25.61725 | 42.14886 | 41991 ft | 411 kts | 247° |
| 2026-04-24 21:47 | 25.59282 | 42.09151 | 41998 ft | 412 kts | 247° |
| 2026-04-24 21:47 | 25.56850 | 42.03449 | 42005 ft | 411 kts | 247° |
| 2026-04-24 21:48 | 25.54404 | 41.97723 | 42009 ft | 411 kts | 247° |
| 2026-04-24 21:48 | 25.51960 | 41.92008 | 42005 ft | 410 kts | 247° |
| 2026-04-24 21:49 | 25.49516 | 41.86299 | 42001 ft | 410 kts | 247° |
| 2026-04-24 21:49 | 25.47073 | 41.80603 | 41998 ft | 409 kts | 247° |
| 2026-04-24 21:50 | 25.44631 | 41.74914 | 41997 ft | 408 kts | 247° |
| 2026-04-24 21:50 | 25.42192 | 41.69243 | 41993 ft | 404 kts | 247° |
| 2026-04-24 21:50 | 25.41000 | 41.66475 | 41824 ft | 395 kts | 247° |
| 2026-04-24 21:51 | 25.39821 | 41.63737 | 41328 ft | 392 kts | 247° |
| 2026-04-24 21:51 | 25.38659 | 41.61036 | 40868 ft | 388 kts | 247° |
| 2026-04-24 21:51 | 25.37500 | 41.58347 | 40420 ft | 385 kts | 247° |
| 2026-04-24 21:51 | 25.36350 | 41.55683 | 39965 ft | 383 kts | 247° |
| 2026-04-24 21:52 | 25.35207 | 41.53035 | 39501 ft | 383 kts | 247° |
| 2026-04-24 21:52 | 25.34054 | 41.50363 | 39035 ft | 386 kts | 247° |
| 2026-04-24 21:52 | 25.32889 | 41.47666 | 38516 ft | 391 kts | 246° |
| 2026-04-24 21:52 | 25.31713 | 41.44947 | 37997 ft | 392 kts | 246° |
| 2026-04-24 21:53 | 25.30530 | 41.42213 | 37481 ft | 396 kts | 246° |
| 2026-04-24 21:53 | 25.29336 | 41.39455 | 36958 ft | 399 kts | 245° |
| 2026-04-24 21:53 | 25.28150 | 41.36718 | 36412 ft | 401 kts | 245° |
| 2026-04-24 21:53 | 25.26940 | 41.33926 | 35860 ft | 404 kts | 244° |
| 2026-04-24 21:54 | 25.25720 | 41.31115 | 35271 ft | 407 kts | 244° |
| 2026-04-24 21:54 | 25.24493 | 41.28287 | 34677 ft | 410 kts | 243° |
| 2026-04-24 21:54 | 25.23254 | 41.25436 | 34054 ft | 413 kts | 243° |
| 2026-04-24 21:54 | 25.22006 | 41.22566 | 33382 ft | 415 kts | 242° |
| 2026-04-24 21:55 | 25.20756 | 41.19691 | 32725 ft | 415 kts | 242° |
| 2026-04-24 21:55 | 25.19500 | 41.16805 | 32036 ft | 417 kts | 242° |
| 2026-04-24 21:55 | 25.18242 | 41.13916 | 31328 ft | 419 kts | 242° |
| 2026-04-24 21:55 | 25.16978 | 41.11016 | 30809 ft | 418 kts | 242° |
| 2026-04-24 21:56 | 25.15703 | 41.08093 | 30045 ft | 425 kts | 242° |
| 2026-04-24 21:56 | 25.14425 | 41.05166 | 29249 ft | 420 kts | 242° |
| 2026-04-24 21:56 | 25.13167 | 41.02283 | 28498 ft | 415 kts | 242° |
| 2026-04-24 21:56 | 25.11933 | 40.99461 | 27771 ft | 410 kts | 242° |
| 2026-04-24 21:57 | 25.10512 | 40.96757 | 27050 ft | 405 kts | 235° |
| 2026-04-24 21:57 | 25.08800 | 40.94303 | 26349 ft | 404 kts | 229° |
| 2026-04-24 21:57 | 25.06810 | 40.92111 | 25842 ft | 404 kts | 223° |
| 2026-04-24 21:57 | 25.04567 | 40.90204 | 25299 ft | 409 kts | 218° |
| 2026-04-24 21:58 | 25.02239 | 40.88397 | 24775 ft | 410 kts | 218° |
| 2026-04-24 21:58 | 24.99908 | 40.86581 | 24230 ft | 410 kts | 218° |
| 2026-04-24 21:58 | 24.97578 | 40.84779 | 23687 ft | 409 kts | 218° |
| 2026-04-24 21:58 | 24.95254 | 40.82986 | 23135 ft | 406 kts | 218° |
| 2026-04-24 21:59 | 24.92950 | 40.81204 | 22580 ft | 402 kts | 218° |
| 2026-04-24 21:59 | 24.90672 | 40.79441 | 22063 ft | 399 kts | 218° |
| 2026-04-24 21:59 | 24.88408 | 40.77690 | 21525 ft | 396 kts | 218° |
| 2026-04-24 21:59 | 24.86155 | 40.75951 | 21016 ft | 395 kts | 218° |
| 2026-04-24 22:00 | 24.83914 | 40.74222 | 20491 ft | 393 kts | 218° |
| 2026-04-24 22:00 | 24.81685 | 40.72502 | 19991 ft | 390 kts | 217° |
| 2026-04-24 22:00 | 24.79472 | 40.70794 | 19456 ft | 387 kts | 217° |
| 2026-04-24 22:00 | 24.77271 | 40.69097 | 18957 ft | 385 kts | 217° |
| 2026-04-24 22:01 | 24.75083 | 40.67411 | 18454 ft | 383 kts | 217° |
| 2026-04-24 22:01 | 24.72907 | 40.65736 | 17915 ft | 380 kts | 217° |
| 2026-04-24 22:01 | 24.70824 | 40.63988 | 17417 ft | 374 kts | 224° |
| 2026-04-24 22:01 | 24.69050 | 40.61915 | 16938 ft | 370 kts | 232° |
| 2026-04-24 22:02 | 24.67629 | 40.59575 | 16481 ft | 367 kts | 240° |
| 2026-04-24 22:02 | 24.66578 | 40.57024 | 16016 ft | 366 kts | 249° |
| 2026-04-24 22:02 | 24.65922 | 40.54320 | 15536 ft | 367 kts | 257° |
| 2026-04-24 22:02 | 24.65554 | 40.51552 | 15100 ft | 363 kts | 259° |
| 2026-04-24 22:03 | 24.65190 | 40.48832 | 14996 ft | 356 kts | 259° |
| 2026-04-24 22:03 | 24.64836 | 40.46125 | 14999 ft | 361 kts | 259° |
| 2026-04-24 22:03 | 24.64481 | 40.43394 | 15005 ft | 361 kts | 259° |
| 2026-04-24 22:03 | 24.64123 | 40.40656 | 15010 ft | 363 kts | 259° |
| 2026-04-24 22:04 | 24.63761 | 40.37905 | 15018 ft | 364 kts | 259° |
| 2026-04-24 22:04 | 24.63399 | 40.35153 | 15024 ft | 364 kts | 259° |
| 2026-04-24 22:04 | 24.63041 | 40.32430 | 14623 ft | 362 kts | 259° |
| 2026-04-24 22:04 | 24.62688 | 40.29730 | 14344 ft | 348 kts | 259° |
| 2026-04-24 22:05 | 24.62354 | 40.27185 | 14159 ft | 322 kts | 259° |
| 2026-04-24 22:05 | 24.62051 | 40.24874 | 14021 ft | 287 kts | 258° |
| 2026-04-24 22:05 | 24.61781 | 40.22833 | 13895 ft | 257 kts | 258° |
| 2026-04-24 22:05 | 24.61519 | 40.20896 | 13784 ft | 257 kts | 258° |
| 2026-04-24 22:06 | 24.61263 | 40.18974 | 13635 ft | 252 kts | 258° |
| 2026-04-24 22:06 | 24.61013 | 40.17085 | 13478 ft | 249 kts | 258° |
| 2026-04-24 22:06 | 24.60762 | 40.15199 | 13347 ft | 250 kts | 258° |
| 2026-04-24 22:06 | 24.60509 | 40.13300 | 13194 ft | 253 kts | 258° |
| 2026-04-24 22:07 | 24.60357 | 40.12158 | 13103 ft | 255 kts | 258° |
| 2026-04-24 22:07 | 24.60102 | 40.10237 | 12940 ft | 253 kts | 258° |
| 2026-04-24 22:07 | 24.59847 | 40.08329 | 12784 ft | 253 kts | 258° |
| 2026-04-24 22:07 | 24.59591 | 40.06416 | 12630 ft | 253 kts | 259° |
| 2026-04-24 22:08 | 24.59335 | 40.04500 | 12464 ft | 254 kts | 259° |
| 2026-04-24 22:08 | 24.59091 | 40.02579 | 12291 ft | 254 kts | 259° |
| 2026-04-24 22:08 | 24.58851 | 40.00656 | 12129 ft | 255 kts | 259° |
| 2026-04-24 22:08 | 24.58608 | 39.98726 | 11955 ft | 255 kts | 259° |
| 2026-04-24 22:09 | 24.58361 | 39.96796 | 11792 ft | 255 kts | 259° |
| 2026-04-24 22:09 | 24.58114 | 39.94865 | 11629 ft | 255 kts | 259° |
| 2026-04-24 22:09 | 24.57870 | 39.92948 | 11462 ft | 255 kts | 259° |
| 2026-04-24 22:09 | 24.57624 | 39.91020 | 11294 ft | 255 kts | 259° |
| 2026-04-24 22:10 | 24.57376 | 39.89083 | 11135 ft | 256 kts | 259° |
| 2026-04-24 22:10 | 24.57132 | 39.87170 | 10966 ft | 245 kts | 259° |
| 2026-04-24 22:10 | 24.56764 | 39.85395 | 10836 ft | 236 kts | 244° |
| 2026-04-24 22:10 | 24.55860 | 39.83924 | 10686 ft | 232 kts | 224° |
| 2026-04-24 22:11 | 24.54522 | 39.82937 | 10573 ft | 234 kts | 204° |
| 2026-04-24 22:11 | 24.52924 | 39.82577 | 10436 ft | 239 kts | 182° |
| 2026-04-24 22:11 | 24.51262 | 39.82847 | 10291 ft | 241 kts | 172° |
| 2026-04-24 22:11 | 24.49618 | 39.83188 | 10144 ft | 241 kts | 173° |
| 2026-04-24 22:12 | 24.47978 | 39.83535 | 9992 ft | 240 kts | 172° |
| 2026-04-24 22:12 | 24.46324 | 39.83886 | 9528 ft | 244 kts | 172° |
| 2026-04-24 22:12 | 24.44648 | 39.84241 | 9289 ft | 249 kts | 172° |
| 2026-04-24 22:12 | 24.42980 | 39.84595 | 9061 ft | 245 kts | 172° |
| 2026-04-24 22:13 | 24.41299 | 39.84951 | 8877 ft | 247 kts | 172° |
| 2026-04-24 22:13 | 24.39609 | 39.85309 | 8703 ft | 247 kts | 171° |
| 2026-04-24 22:13 | 24.37927 | 39.85665 | 8502 ft | 246 kts | 171° |
| 2026-04-24 22:13 | 24.36248 | 39.86020 | 8292 ft | 245 kts | 171° |
| 2026-04-24 22:14 | 24.34575 | 39.86374 | 8080 ft | 244 kts | 171° |
| 2026-04-24 22:14 | 24.32927 | 39.86723 | 7982 ft | 238 kts | 171° |
| 2026-04-24 22:14 | 24.31283 | 39.87005 | 7991 ft | 240 kts | 174° |
| 2026-04-24 22:14 | 24.29632 | 39.87339 | 7991 ft | 242 kts | 170° |
| 2026-04-24 22:15 | 24.27977 | 39.87759 | 7852 ft | 245 kts | 169° |
| 2026-04-24 22:15 | 24.26370 | 39.88122 | 7723 ft | 225 kts | 171° |
| 2026-04-24 22:15 | 24.24895 | 39.88424 | 7700 ft | 206 kts | 172° |
| 2026-04-24 22:15 | 24.23517 | 39.88706 | 7466 ft | 200 kts | 172° |
| 2026-04-24 22:16 | 24.22153 | 39.88767 | 7012 ft | 197 kts | 193° |
| 2026-04-24 22:16 | 24.20954 | 39.88087 | 6621 ft | 194 kts | 219° |
| 2026-04-24 22:16 | 24.20219 | 39.86877 | 6486 ft | 192 kts | 245° |
| 2026-04-24 22:16 | 24.19930 | 39.85425 | 6495 ft | 199 kts | 255° |
| 2026-04-24 22:17 | 24.19670 | 39.83928 | 6506 ft | 200 kts | 255° |
| 2026-04-24 22:17 | 24.19404 | 39.82432 | 6501 ft | 199 kts | 256° |
| 2026-04-24 22:17 | 24.19166 | 39.80933 | 6496 ft | 201 kts | 261° |
| 2026-04-24 22:17 | 24.19517 | 39.79426 | 6469 ft | 211 kts | 294° |
| 2026-04-24 22:18 | 24.20572 | 39.78299 | 6466 ft | 218 kts | 329° |
| 2026-04-24 22:18 | 24.22019 | 39.77846 | 6487 ft | 221 kts | 347° |
| 2026-04-24 22:18 | 24.23541 | 39.77556 | 6495 ft | 223 kts | 348° |
| 2026-04-24 22:18 | 24.25073 | 39.77255 | 6489 ft | 224 kts | 347° |
| 2026-04-24 22:19 | 24.26597 | 39.76933 | 6493 ft | 223 kts | 347° |
| 2026-04-24 22:19 | 24.28123 | 39.76609 | 6484 ft | 222 kts | 347° |
| 2026-04-24 22:19 | 24.29632 | 39.76288 | 6490 ft | 221 kts | 347° |
| 2026-04-24 22:19 | 24.31141 | 39.75967 | 6430 ft | 223 kts | 347° |
| 2026-04-24 22:20 | 24.32670 | 39.75640 | 6167 ft | 219 kts | 348° |
| 2026-04-24 22:20 | 24.34112 | 39.75334 | 5895 ft | 204 kts | 348° |
| 2026-04-24 22:20 | 24.35489 | 39.75041 | 5633 ft | 201 kts | 348° |
| 2026-04-24 22:20 | 24.36801 | 39.74762 | 5378 ft | 183 kts | 348° |
| 2026-04-24 22:21 | 24.38033 | 39.74500 | 5153 ft | 178 kts | 348° |
| 2026-04-24 22:21 | 24.39245 | 39.74242 | 4930 ft | 178 kts | 348° |
| 2026-04-24 22:21 | 24.40458 | 39.73982 | 4705 ft | 177 kts | 349° |
| 2026-04-24 22:21 | 24.41665 | 39.73726 | 4479 ft | 172 kts | 349° |
| 2026-04-24 22:22 | 24.42830 | 39.73479 | 4249 ft | 172 kts | 349° |
| 2026-04-24 22:22 | 24.43987 | 39.73230 | 4041 ft | 171 kts | 348° |
| 2026-04-24 22:22 | 24.45162 | 39.72971 | 3842 ft | 170 kts | 349° |
| 2026-04-24 22:22 | 24.46317 | 39.72711 | 3615 ft | 170 kts | 349° |
| 2026-04-24 22:23 | 24.47477 | 39.72466 | 3412 ft | 170 kts | 350° |
| 2026-04-24 22:23 | 24.48632 | 39.72211 | 3174 ft | 168 kts | 350° |
| 2026-04-24 22:23 | 24.49784 | 39.71967 | 2912 ft | 172 kts | 349° |
| 2026-04-24 22:23 | 24.50967 | 39.71731 | 2739 ft | 172 kts | 349° |
| 2026-04-24 22:24 | 24.52116 | 39.71492 | 2456 ft | 167 kts | 347° |
| 2026-04-24 22:24 | 24.53265 | 39.71253 | 2266 ft | 168 kts | 349° |
| 2026-04-24 22:24 | 24.54396 | 39.71017 | 2112 ft | 156 kts | 350° |
| 2026-04-24 22:24 | 24.55040 | 39.70884 | 2102 ft | 121 kts | 349° |
| 2026-04-24 22:25 | 24.55680 | 39.70749 | 2110 ft | 63 kts | 349° |
| 2026-04-24 22:25 | 24.56004 | 39.70686 | 2120 ft | 32 kts | 355° |
| 2026-04-24 22:25 | 24.56163 | 39.70709 | 2127 ft | 16 kts | 15° |
| 2026-04-24 22:25 | 24.56235 | 39.70733 | 2129 ft | 10 kts | 19° |
| 2026-04-24 22:26 | 24.56266 | 39.70750 | 2126 ft | 6 kts | 34° |
| 2026-04-24 22:26 | 24.56271 | 39.70754 | 2127 ft | 0 kts | 38° |
| 2026-04-24 22:28 | 24.56278 | 39.70762 | 2127 ft | 3 kts | 49° |
| 2026-04-24 22:28 | 24.56283 | 39.70788 | 2127 ft | 4 kts | 98° |
| 2026-04-24 22:28 | 24.56260 | 39.70818 | 2126 ft | 7 kts | 152° |
| 2026-04-24 22:29 | 24.56130 | 39.70847 | 2128 ft | 12 kts | 168° |
| 2026-04-24 22:29 | 24.56048 | 39.70865 | 2123 ft | 11 kts | 169° |
| 2026-04-24 22:29 | 24.55999 | 39.70898 | 2120 ft | 7 kts | 116° |
| 2026-04-24 22:30 | 24.56000 | 39.70944 | 2120 ft | 6 kts | 80° |
| 2026-04-24 22:30 | 24.56007 | 39.70989 | 2121 ft | 6 kts | 79° |
| 2026-04-24 22:30 | 24.56014 | 39.71040 | 2121 ft | 6 kts | 89° |
| 2026-04-24 22:30 | 24.55998 | 39.71065 | 2123 ft | 4 kts | 144° |
| 2026-04-24 22:31 | 24.55964 | 39.71080 | 2120 ft | 7 kts | 167° |
| 2026-04-24 22:31 | 24.55909 | 39.71092 | 2119 ft | 9 kts | 169° |
| 2026-04-24 22:31 | 24.55840 | 39.71106 | 2118 ft | 9 kts | 169° |
| 2026-04-24 22:31 | 24.55790 | 39.71116 | 2117 ft | 8 kts | 169° |
| 2026-04-24 22:32 | 24.55749 | 39.71125 | 2116 ft | 4 kts | 169° |
| 2026-04-24 22:32 | 24.55732 | 39.71135 | 2115 ft | 1 kts | 129° |
| 2026-04-24 22:32 | 24.55728 | 39.71157 | 2115 ft | 3 kts | 90° |
| 2026-04-24 22:32 | 24.55731 | 39.71184 | 2116 ft | 4 kts | 81° |
| 2026-04-24 22:33 | 24.55736 | 39.71216 | 2116 ft | 5 kts | 80° |
| 2026-04-24 22:33 | 24.55739 | 39.71234 | 2116 ft | 0 kts | 80° |